Maldives Meteorological Service

SYNOP

Station Code SYNOP
43555
AAXX 02094 43555 41465 72911 10284 20246 30092 40094 70282 8297/ 333 58003 82816 81917 87360 =
43533
AAXX 02094 43533 42462 43205 10314 20259 30087 40089 82201 333 59006 82818 83078=
43577
AAXX 02094 43577 42464 72704 10310 20263 40092 50094 81232 333 58139 81818 87077=
43588
AAXX 02094 43588 42465 72709 10306 20249 30096 40097 82202 333 58002 82818 87077=
43599
AAXX 02094 43599 42460 72914 10315 20247 30097 40099 82202 333 58001 82818 87076=
Last Updated : 2020-12-02 14:01:35